Time;durP1;ratioP1;P1;durP2;ratioP2;P2;SDS_P1;SDS_P2;PMS_P1;PMS_P2;Temp;Humidity;BMP_temperature;BMP_pressure;BME280_temperature;BME280_humidity;BME280_pressure;Samples;Min_cycle;Max_cycle;Signal;HPM_P1;HPM_P2
2023/02/22 00:01:34;;;;;;;1.75;1.00;;;;;;;8.26;87.79;100184.78;5009127;28;20056;-42
2023/02/22 00:04:04;;;;;;;1.33;1.05;;;;;;;8.24;88.06;100187.09;5009687;28;20041;-43
2023/02/22 00:06:31;;;;;;;2.58;2.38;;;;;;;8.22;88.18;100183.88;5009947;28;20109;-44
2023/02/22 00:09:01;;;;;;;2.50;1.52;;;;;;;8.22;88.28;100192.16;5009304;28;20042;-43
2023/02/22 00:11:30;;;;;;;4.68;1.73;;;;;;;8.17;88.55;100184.09;5017652;28;20095;-43
2023/02/22 00:13:57;;;;;;;1.65;1.13;;;;;;;8.17;88.67;100186.06;5009377;28;20103;-43
2023/02/22 00:16:25;;;;;;;1.67;1.20;;;;;;;8.16;88.72;100188.00;5009491;28;20077;-44
2023/02/22 00:18:52;;;;;;;1.90;1.30;;;;;;;8.15;89.04;100188.34;4997113;28;20050;-46
2023/02/22 00:21:20;;;;;;;1.52;1.40;;;;;;;8.12;89.44;100186.28;5009751;28;20050;-43
2023/02/22 00:23:47;;;;;;;1.83;0.98;;;;;;;8.10;89.47;100197.63;5006336;28;20206;-44
2023/02/22 00:26:17;;;;;;;1.85;0.85;;;;;;;8.04;89.39;100223.03;5009110;28;20201;-43
2023/02/22 00:28:49;;;;;;;3.67;0.73;;;;;;;7.95;89.45;100223.91;5009365;28;20058;-46
2023/02/22 00:31:17;;;;;;;0.47;0.30;;;;;;;7.87;89.38;100211.03;5001881;28;20137;-43
2023/02/22 00:33:45;;;;;;;0.85;0.40;;;;;;;7.75;89.21;100235.81;5015065;28;20503;-44
2023/02/22 00:36:12;;;;;;;1.23;0.40;;;;;;;7.58;89.38;100224.94;5003168;28;20073;-43
2023/02/22 00:38:40;;;;;;;1.17;0.35;;;;;;;7.50;89.53;100233.25;5009009;28;20080;-51
2023/02/22 00:41:08;;;;;;;1.20;0.45;;;;;;;7.43;89.55;100242.06;5008846;28;20042;-44
2023/02/22 00:43:34;;;;;;;0.93;0.40;;;;;;;7.32;89.70;100243.63;5008960;28;20088;-42
2023/02/22 00:46:01;;;;;;;1.38;0.77;;;;;;;7.25;89.71;100248.88;4989686;28;20054;-44
2023/02/22 00:48:28;;;;;;;2.70;0.50;;;;;;;7.22;89.87;100250.34;5007034;28;20054;-48
2023/02/22 00:50:55;;;;;;;1.20;0.50;;;;;;;7.18;89.84;100248.56;5008157;28;20046;-45
2023/02/22 00:53:23;;;;;;;1.98;0.60;;;;;;;7.14;89.79;100253.97;5009170;28;20049;-44
2023/02/22 00:55:50;;;;;;;0.88;0.80;;;;;;;7.14;89.81;100258.66;5008949;28;20045;-43
2023/02/22 00:58:17;;;;;;;2.78;0.60;;;;;;;7.13;89.76;100257.03;5005028;28;20461;-43
2023/02/22 01:00:45;;;;;;;1.08;0.45;;;;;;;7.08;89.66;100266.28;5004959;28;20077;-44
2023/02/22 01:03:14;;;;;;;0.90;0.30;;;;;;;7.01;89.42;100276.22;5009042;28;20046;-43
2023/02/22 01:05:41;;;;;;;0.47;0.40;;;;;;;6.99;89.62;100273.00;5002615;28;20072;-45
2023/02/22 01:08:11;;;;;;;2.05;0.90;;;;;;;6.97;89.42;100278.81;5013098;28;20046;-43
2023/02/22 01:10:39;;;;;;;1.10;0.40;;;;;;;6.92;89.33;100268.00;5016762;28;20041;-43
2023/02/22 01:13:07;;;;;;;2.05;0.22;;;;;;;6.88;89.06;100277.25;5018309;28;20496;-44
2023/02/22 01:15:36;;;;;;;3.15;0.50;;;;;;;6.82;89.02;100284.09;5011298;28;20072;-43
2023/02/22 01:18:04;;;;;;;1.35;0.38;;;;;;;6.79;89.13;100291.06;5002062;28;20096;-48
2023/02/22 01:20:31;;;;;;;4.38;1.20;;;;;;;6.80;88.99;100297.38;5011370;28;20069;-43
2023/02/22 01:23:00;;;;;;;6.68;0.93;;;;;;;6.75;88.89;100312.91;5010439;28;20081;-42
2023/02/22 01:25:29;;;;;;;3.17;0.93;;;;;;;6.74;89.01;100310.50;5012698;28;20377;-44
2023/02/22 01:27:59;;;;;;;6.88;0.52;;;;;;;6.73;88.71;100304.19;5012191;28;20041;-42
2023/02/22 01:30:31;;;;;;;3.97;0.82;;;;;;;6.72;88.92;100310.81;5001196;28;20081;-47
2023/02/22 01:33:00;;;;;;;2.03;0.30;;;;;;;6.73;88.92;100303.38;5012309;28;20046;-43
2023/02/22 01:35:31;;;;;;;3.60;0.50;;;;;;;6.69;88.89;100317.00;4994859;28;20135;-42
2023/02/22 01:37:58;;;;;;;1.77;0.50;;;;;;;6.69;89.06;100311.50;5005664;28;20496;-48
2023/02/22 01:40:32;;;;;;;5.22;0.93;;;;;;;6.66;88.93;100323.16;5010066;28;20447;-42
2023/02/22 01:43:14;;;;;;;2.33;0.50;;;;;;;6.65;88.82;100335.28;5012133;28;20128;-44
2023/02/22 01:45:48;;;;;;;3.33;0.60;;;;;;;6.64;88.73;100328.19;5012295;28;20487;-43
2023/02/22 01:48:39;;;;;;;4.00;0.82;;;;;;;6.63;88.85;100332.06;4999255;28;20040;-43
2023/02/22 01:51:28;;;;;;;6.75;0.80;;;;;;;6.63;88.89;100321.06;5010856;28;20133;-43
2023/02/22 01:54:03;;;;;;;10.95;2.00;;;;;;;6.60;88.89;100332.72;5011857;28;20515;-43
2023/02/22 01:56:33;;;;;;;5.40;0.63;;;;;;;6.59;88.83;100331.09;5009235;28;20137;-44
2023/02/22 01:59:09;;;;;;;3.13;0.80;;;;;;;6.59;88.73;100336.59;5012081;28;20050;-43
2023/02/22 02:01:38;;;;;;;6.53;0.68;;;;;;;6.53;88.81;100332.44;5011574;28;20056;-43
2023/02/22 02:04:11;;;;;;;5.47;1.02;;;;;;;6.50;88.88;100338.59;5011508;28;20433;-43
2023/02/22 02:06:41;;;;;;;1.58;0.40;;;;;;;6.50;88.77;100341.34;5002712;28;20060;-44
2023/02/22 02:09:19;;;;;;;1.52;0.77;;;;;;;6.50;88.93;100332.25;5011696;28;20045;-43
2023/02/22 02:11:47;;;;;;;5.80;0.85;;;;;;;6.49;88.87;100331.44;5012388;28;20077;-43
2023/02/22 02:14:14;;;;;;;4.60;0.70;;;;;;;6.45;88.70;100329.69;5001891;28;20053;-44
2023/02/22 02:16:44;;;;;;;3.13;0.60;;;;;;;6.46;88.93;100342.31;5010904;28;20056;-43
2023/02/22 02:19:21;;;;;;;3.45;0.70;;;;;;;6.47;88.96;100343.91;4998857;28;20046;-49
2023/02/22 02:22:20;;;;;;;8.50;1.40;;;;;;;6.53;89.06;100350.88;5011350;28;20053;-42
2023/02/22 02:25:05;;;;;;;1.85;0.50;;;;;;;6.54;89.03;100339.53;5011204;28;20777;-42
2023/02/22 02:27:53;;;;;;;4.50;1.15;;;;;;;6.55;89.10;100335.66;5000361;28;20073;-43
2023/02/22 02:31:06;;;;;;;4.55;1.25;;;;;;;6.58;89.10;100340.50;5005953;28;20073;-43
2023/02/22 02:33:36;;;;;;;4.53;0.63;;;;;;;6.53;88.85;100348.94;5000906;28;20061;-42
2023/02/22 02:36:29;;;;;;;5.30;1.20;;;;;;;6.55;89.05;100351.34;5017442;28;20052;-43
2023/02/22 02:39:24;;;;;;;5.97;0.73;;;;;;;6.46;88.95;100350.56;5001386;28;20141;-44
2023/02/22 02:41:51;;;;;;;1.23;0.70;;;;;;;6.44;89.05;100355.56;5009838;28;20062;-42
2023/02/22 02:44:40;;;;;;;2.95;0.65;;;;;;;6.37;89.19;100352.53;5010925;28;20076;-44
2023/02/22 02:47:45;;;;;;;4.32;0.80;;;;;;;6.33;89.37;100355.09;5003579;28;20039;-44
2023/02/22 02:50:23;;;;;;;3.33;1.23;;;;;;;6.31;89.39;100351.88;4991353;28;20096;-47
2023/02/22 02:52:54;;;;;;;2.95;0.85;;;;;;;6.27;89.37;100359.19;5010435;28;20103;-42
2023/02/22 02:55:21;;;;;;;9.82;2.00;;;;;;;6.31;89.53;100362.06;5010914;28;20045;-43
2023/02/22 02:57:48;;;;;;;3.03;0.50;;;;;;;6.28;89.45;100349.78;5006195;28;20137;-43
2023/02/22 03:03:29;;;;;;;10.02;1.55;;;;;;;6.30;89.45;100357.72;4976126;23;20037;-48
2023/02/22 03:06:03;;;;;;;2.55;1.10;;;;;;;6.28;89.47;100368.22;5030397;28;20188;-45
2023/02/22 03:08:56;;;;;;;5.28;0.93;;;;;;;6.27;89.58;100366.63;5030371;28;20045;-47
2023/02/22 03:11:47;;;;;;;5.32;0.88;;;;;;;6.29;89.44;100358.84;5030464;28;20059;-44
2023/02/22 03:14:24;;;;;;;5.82;0.88;;;;;;;6.28;89.49;100360.78;5017897;28;20756;-45
2023/02/22 03:17:00;;;;;;;5.80;1.55;;;;;;;6.30;89.53;100371.47;5029221;28;20513;-45
2023/02/22 03:19:27;;;;;;;2.22;0.80;;;;;;;6.32;89.51;100364.50;5020429;28;20455;-45
2023/02/22 03:21:57;;;;;;;4.85;0.88;;;;;;;6.34;89.67;100370.47;5011115;28;20111;-45
2023/02/22 03:24:36;;;;;;;2.75;0.60;;;;;;;6.34;89.58;100372.41;5030303;28;20048;-48
2023/02/22 03:27:20;;;;;;;3.22;1.08;;;;;;;6.32;89.62;100375.50;5030223;28;20053;-45
2023/02/22 03:29:50;;;;;;;2.80;0.82;;;;;;;6.24;89.67;100370.00;5028975;28;20406;-45
2023/02/22 03:32:24;;;;;;;4.47;0.80;;;;;;;6.19;89.73;100379.25;5021630;28;20053;-44
2023/02/22 03:35:05;;;;;;;2.35;0.90;;;;;;;6.18;89.85;100369.38;5035835;28;20045;-45
2023/02/22 03:37:37;;;;;;;2.65;0.73;;;;;;;6.13;89.81;100367.59;5010501;28;20045;-45
2023/02/22 03:40:16;;;;;;;10.85;1.40;;;;;;;6.05;89.94;100371.16;5028726;28;20037;-44
2023/02/22 03:42:50;;;;;;;3.38;0.80;;;;;;;5.99;89.97;100366.94;4992933;28;20057;-45
2023/02/22 03:45:20;;;;;;;1.73;0.82;;;;;;;5.98;90.15;100370.81;5029985;28;20061;-45
2023/02/22 03:47:50;;;;;;;6.93;0.80;;;;;;;5.98;90.16;100381.81;5029573;28;20491;-45
2023/02/22 03:50:20;;;;;;;6.43;1.05;;;;;;;5.97;90.13;100376.66;5029644;28;20111;-45
2023/02/22 03:52:47;;;;;;;4.82;0.82;;;;;;;5.97;90.11;100387.63;5029456;28;20092;-45
2023/02/22 03:55:16;;;;;;;5.22;1.00;;;;;;;5.97;90.16;100391.19;5028954;28;20110;-45
2023/02/22 03:57:50;;;;;;;1.85;1.15;;;;;;;5.90;90.18;100390.06;5029961;28;20082;-47
2023/02/22 04:00:25;;;;;;;4.88;0.60;;;;;;;5.89;89.96;100388.44;5029268;28;20100;-45
2023/02/22 04:02:52;;;;;;;1.00;0.70;;;;;;;5.89;90.11;100381.00;5016551;28;20081;-45
2023/02/22 04:05:19;;;;;;;4.88;0.80;;;;;;;5.91;90.27;100391.66;5029411;28;20136;-49
2023/02/22 04:07:45;;;;;;;2.95;0.65;;;;;;;5.92;89.84;100396.84;5030054;28;20054;-45
2023/02/22 04:10:14;;;;;;;5.00;0.50;;;;;;;5.92;89.75;100396.03;5029108;28;20041;-48
2023/02/22 04:12:42;;;;;;;3.03;0.63;;;;;;;5.92;89.75;100398.78;5028654;28;20058;-45
2023/02/22 04:15:14;;;;;;;0.90;0.40;;;;;;;5.91;89.78;100402.66;5029258;28;20056;-44
2023/02/22 04:17:41;;;;;;;5.88;0.73;;;;;;;5.93;89.83;100398.47;5021797;28;20129;-45
2023/02/22 04:20:08;;;;;;;1.25;0.40;;;;;;;5.95;89.85;100404.47;5024717;28;20743;-45
2023/02/22 04:22:35;;;;;;;3.08;0.57;;;;;;;5.97;89.92;100413.19;5028810;28;20053;-46
2023/02/22 04:25:02;;;;;;;2.50;0.60;;;;;;;5.95;90.00;100403.66;5028825;28;20049;-46
2023/02/22 04:27:29;;;;;;;3.22;0.25;;;;;;;5.91;89.77;100408.16;5029348;28;20103;-45
2023/02/22 04:29:55;;;;;;;2.55;1.10;;;;;;;5.88;90.00;100406.03;5028147;28;20129;-45
2023/02/22 04:32:22;;;;;;;1.63;0.45;;;;;;;5.84;90.01;100413.31;5029044;28;20080;-46
2023/02/22 04:34:49;;;;;;;2.75;0.45;;;;;;;5.82;90.21;100412.81;5040575;28;20060;-47
2023/02/22 04:37:16;;;;;;;0.60;0.20;;;;;;;5.84;90.17;100413.31;5028990;28;20120;-44
2023/02/22 04:39:42;;;;;;;1.08;0.20;;;;;;;5.83;90.58;100408.91;5028852;28;20073;-45
2023/02/22 04:42:09;;;;;;;1.58;0.30;;;;;;;5.79;90.25;100411.53;5020974;28;20510;-45
2023/02/22 04:44:36;;;;;;;4.60;0.50;;;;;;;5.80;90.15;100417.84;5024969;28;20042;-45
2023/02/22 04:47:03;;;;;;;4.18;0.35;;;;;;;5.76;90.35;100427.84;5028088;28;20033;-45
2023/02/22 04:49:29;;;;;;;2.33;0.45;;;;;;;5.71;90.19;100417.00;5028740;28;20403;-45
2023/02/22 04:51:56;;;;;;;1.58;0.35;;;;;;;5.72;90.39;100411.16;5027435;28;20037;-45
2023/02/22 04:54:23;;;;;;;1.85;0.50;;;;;;;5.68;89.88;100426.69;5028508;28;20049;-45
2023/02/22 04:56:50;;;;;;;3.53;1.05;;;;;;;5.65;89.92;100432.81;5028612;28;20052;-45
2023/02/22 04:59:18;;;;;;;3.30;0.73;;;;;;;5.63;90.17;100431.53;5025789;28;20048;-45
2023/02/22 05:01:45;;;;;;;2.33;0.50;;;;;;;5.64;90.04;100433.16;5019924;28;20429;-45
2023/02/22 05:04:12;;;;;;;3.03;0.38;;;;;;;5.62;89.93;100436.19;5027692;28;20060;-45
2023/02/22 05:06:39;;;;;;;4.72;0.60;;;;;;;5.58;89.42;100443.47;5028482;28;20107;-45
2023/02/22 05:09:06;;;;;;;2.22;0.40;;;;;;;5.56;89.34;100450.41;5028558;28;20092;-45
2023/02/22 05:11:32;;;;;;;1.95;0.32;;;;;;;5.54;89.33;100457.03;5039920;28;20124;-49
2023/02/22 05:13:59;;;;;;;0.90;0.30;;;;;;;5.54;89.28;100456.22;5029101;28;20049;-45
2023/02/22 05:16:26;;;;;;;2.83;0.52;;;;;;;5.52;89.23;100448.31;5028313;28;20412;-46
2023/02/22 05:18:53;;;;;;;1.90;0.30;;;;;;;5.51;89.03;100448.59;5028377;28;20525;-45
2023/02/22 05:21:20;;;;;;;2.33;0.45;;;;;;;5.47;88.93;100455.88;5027447;28;20053;-45
2023/02/22 05:23:48;;;;;;;0.65;0.40;;;;;;;5.46;88.75;100459.72;5028302;28;20371;-45
2023/02/22 05:26:15;;;;;;;3.03;0.40;;;;;;;5.46;88.85;100468.78;5028388;28;20045;-47
2023/02/22 05:28:41;;;;;;;2.40;0.25;;;;;;;5.46;88.88;100470.72;5028142;28;20128;-45
2023/02/22 05:31:08;;;;;;;1.60;0.50;;;;;;;5.49;88.76;100478.31;5028548;28;20064;-45
2023/02/22 05:33:35;;;;;;;0.63;0.35;;;;;;;5.49;88.48;100479.13;5014337;28;20045;-51
2023/02/22 05:36:03;;;;;;;1.40;0.30;;;;;;;5.49;88.31;100484.63;5035360;28;20058;-45
2023/02/22 05:38:30;;;;;;;2.38;0.40;;;;;;;5.46;88.39;100479.75;5027115;28;20049;-46
2023/02/22 05:40:56;;;;;;;1.35;0.40;;;;;;;5.44;88.37;100493.00;5028278;28;20084;-45
2023/02/22 05:43:24;;;;;;;1.75;0.20;;;;;;;5.42;88.36;100489.78;5028292;28;20057;-52
2023/02/22 05:45:51;;;;;;;2.20;0.35;;;;;;;5.41;88.18;100490.88;5028276;28;20049;-48
2023/02/22 05:48:18;;;;;;;0.80;0.32;;;;;;;5.40;88.28;100508.47;5027864;28;20088;-45
2023/02/22 05:50:48;;;;;;;1.80;0.30;;;;;;;5.40;88.30;100507.69;5028276;28;20049;-45
2023/02/22 05:53:15;;;;;;;2.92;0.40;;;;;;;5.39;87.93;100508.81;5030052;28;20461;-46
2023/02/22 05:55:42;;;;;;;0.82;0.30;;;;;;;5.36;87.93;100520.41;5030132;28;20052;-46
2023/02/22 05:58:11;;;;;;;1.55;0.50;;;;;;;5.33;87.75;100508.13;5031417;28;20115;-47
2023/02/22 06:00:38;;;;;;;5.10;1.40;;;;;;;5.33;87.83;100521.84;5019228;28;20049;-51
2023/02/22 06:03:07;;;;;;;3.58;0.50;;;;;;;5.32;87.66;100522.97;5031796;28;20092;-46
2023/02/22 06:05:35;;;;;;;1.77;0.35;;;;;;;5.30;87.64;100522.47;5029959;28;20048;-44
2023/02/22 06:08:03;;;;;;;1.77;0.50;;;;;;;5.28;87.59;100523.94;5031664;28;20042;-44
2023/02/22 06:10:30;;;;;;;3.03;0.40;;;;;;;5.25;87.75;100525.38;5031340;28;20044;-48
2023/02/22 06:12:57;;;;;;;1.30;0.57;;;;;;;5.25;87.48;100528.13;5031913;28;20080;-44
2023/02/22 06:15:26;;;;;;;1.88;0.50;;;;;;;5.24;87.59;100531.97;5031009;28;20077;-44
2023/02/22 06:17:55;;;;;;;2.35;0.40;;;;;;;5.21;87.47;100540.03;5031152;28;20124;-44
2023/02/22 06:20:23;;;;;;;4.13;0.45;;;;;;;5.20;87.15;100536.47;5030992;28;20585;-44
2023/02/22 06:22:52;;;;;;;0.38;0.13;;;;;;;5.17;87.35;100537.09;5031544;28;20052;-43
2023/02/22 06:25:23;;;;;;;4.05;0.40;;;;;;;5.14;87.01;100542.41;5031142;28;20095;-44
2023/02/22 06:27:50;;;;;;;3.58;0.82;;;;;;;5.09;87.27;100540.59;5030345;28;20503;-44
2023/02/22 06:30:20;;;;;;;3.78;0.70;;;;;;;5.07;87.07;100542.03;5030584;28;20053;-49
2023/02/22 06:32:47;;;;;;;3.45;0.40;;;;;;;5.05;87.23;100547.88;5031003;28;20192;-56
2023/02/22 06:35:14;;;;;;;3.40;0.90;;;;;;;5.05;87.02;100545.13;5043193;28;20048;-47
2023/02/22 06:37:41;;;;;;;2.58;0.60;;;;;;;5.06;87.09;100552.22;5031101;28;20167;-49
2023/02/22 06:40:10;;;;;;;9.65;0.90;;;;;;;5.06;87.18;100562.38;5017579;28;20496;-44
2023/02/22 06:42:37;;;;;;;0.95;0.43;;;;;;;5.06;87.10;100560.44;5030537;28;20061;-46
2023/02/22 06:45:04;;;;;;;2.15;0.55;;;;;;;5.08;87.12;100563.69;5017567;28;20084;-44
2023/02/22 06:47:31;;;;;;;1.92;0.40;;;;;;;5.14;87.27;100565.16;5025099;28;20046;-43
2023/02/22 06:49:59;;;;;;;1.65;0.82;;;;;;;5.19;87.17;100567.00;5030922;28;20049;-45
2023/02/22 06:52:26;;;;;;;1.92;0.73;;;;;;;5.15;87.04;100566.81;5030680;28;20414;-46
2023/02/22 06:54:53;;;;;;;5.35;0.60;;;;;;;5.15;87.13;100569.53;5013159;28;20136;-44
2023/02/22 06:57:20;;;;;;;1.08;0.32;;;;;;;5.17;87.29;100559.06;5030374;28;20044;-44
2023/02/22 06:59:46;;;;;;;1.50;0.32;;;;;;;5.14;86.95;100576.16;5030343;28;20053;-44
2023/02/22 07:02:13;;;;;;;2.47;0.47;;;;;;;5.11;87.53;100576.78;5028881;28;20053;-44
2023/02/22 07:04:44;;;;;;;0.80;0.22;;;;;;;5.06;87.23;100574.16;5030818;28;20480;-44
2023/02/22 07:07:11;;;;;;;3.53;0.57;;;;;;;5.01;87.18;100577.03;5029995;28;20076;-45
2023/02/22 07:09:37;;;;;;;0.93;0.68;;;;;;;4.95;87.40;100578.28;5030515;28;20124;-45
2023/02/22 07:12:04;;;;;;;6.50;1.05;;;;;;;4.97;87.36;100581.53;5043306;28;20045;-44
2023/02/22 07:14:31;;;;;;;1.48;0.50;;;;;;;4.88;87.35;100577.91;5030471;28;20069;-45
2023/02/22 07:16:58;;;;;;;1.30;0.43;;;;;;;4.82;87.52;100579.97;5030303;28;20372;-47
2023/02/22 07:19:24;;;;;;;1.08;0.38;;;;;;;4.74;87.31;100574.41;5021259;28;20115;-45
2023/02/22 07:21:57;;;;;;;1.70;0.30;;;;;;;4.74;87.37;100582.63;5005798;28;20057;-44
2023/02/22 07:24:27;;;;;;;4.57;0.93;;;;;;;4.72;87.53;100577.47;5021874;28;20073;-46
2023/02/22 07:26:54;;;;;;;1.23;0.50;;;;;;;4.71;87.65;100575.81;5030481;28;20083;-46
2023/02/22 07:29:21;;;;;;;1.10;0.35;;;;;;;4.68;87.60;100584.69;5030246;28;20172;-47
2023/02/22 07:31:48;;;;;;;2.67;0.45;;;;;;;4.63;87.60;100593.03;5030233;28;20059;-46
2023/02/22 07:34:15;;;;;;;2.97;0.40;;;;;;;4.54;87.68;100588.59;5040017;28;20041;-47
2023/02/22 07:36:42;;;;;;;2.28;0.50;;;;;;;4.50;87.62;100599.34;5019338;28;20144;-46
2023/02/22 07:39:09;;;;;;;0.88;0.30;;;;;;;4.48;87.71;100600.78;5029953;28;20128;-47
2023/02/22 07:41:36;;;;;;;2.08;0.60;;;;;;;4.43;87.67;100593.50;5029671;28;20059;-47
2023/02/22 07:44:03;;;;;;;1.58;0.25;;;;;;;4.41;87.60;100600.41;5034444;28;20786;-46
2023/02/22 07:46:30;;;;;;;1.10;0.50;;;;;;;4.40;87.69;100604.25;5031063;28;20072;-46
2023/02/22 07:48:57;;;;;;;1.92;0.40;;;;;;;4.39;87.83;100611.69;5029984;28;20049;-47
2023/02/22 07:51:23;;;;;;;1.30;0.50;;;;;;;4.40;87.91;100598.75;5029471;28;20045;-53
2023/02/22 07:53:50;;;;;;;4.90;0.50;;;;;;;4.37;87.90;100607.63;5028792;28;20083;-47
2023/02/22 07:56:17;;;;;;;4.10;0.50;;;;;;;4.36;88.02;100603.25;5029645;28;20128;-48
2023/02/22 07:58:44;;;;;;;0.43;0.32;;;;;;;4.37;87.79;100616.63;5029571;28;20045;-47
2023/02/22 08:01:11;;;;;;;2.88;0.68;;;;;;;4.37;87.95;100627.59;5029133;28;20136;-46
2023/02/22 08:03:37;;;;;;;1.40;0.50;;;;;;;4.31;87.98;100621.41;5029606;28;20128;-47
2023/02/22 08:06:06;;;;;;;0.95;0.35;;;;;;;4.31;87.82;100629.63;5029302;28;20479;-50
2023/02/22 08:08:33;;;;;;;1.92;0.43;;;;;;;4.31;88.28;100635.13;5029545;28;20049;-46
2023/02/22 08:11:00;;;;;;;2.33;0.63;;;;;;;4.33;88.02;100643.03;5022444;28;20057;-47
2023/02/22 08:13:27;;;;;;;1.08;0.47;;;;;;;4.36;88.13;100644.38;5022507;28;20057;-47
2023/02/22 08:15:54;;;;;;;2.88;1.70;;;;;;;4.39;88.05;100635.53;5028567;28;20042;-46
2023/02/22 08:18:23;;;;;;;4.32;0.90;;;;;;;4.41;87.98;100647.00;5023319;28;20278;-47
2023/02/22 08:20:51;;;;;;;1.95;0.63;;;;;;;4.49;88.31;100651.75;5008069;28;20635;-47
2023/02/22 08:23:21;;;;;;;6.85;0.98;;;;;;;4.56;87.96;100649.41;5015509;28;20407;-47
2023/02/22 08:25:48;;;;;;;2.65;0.80;;;;;;;4.56;87.76;100663.91;5029044;28;20042;-46
2023/02/22 08:28:16;;;;;;;1.45;0.50;;;;;;;4.59;88.00;100673.47;5023080;28;20383;-47
2023/02/22 08:30:43;;;;;;;3.55;0.60;;;;;;;4.57;88.01;100659.25;5020927;28;20073;-48
2023/02/22 08:33:13;;;;;;;3.92;0.60;;;;;;;4.53;87.42;100669.19;5029552;28;20041;-48
2023/02/22 08:35:40;;;;;;;1.70;0.40;;;;;;;4.50;87.55;100675.31;5035556;28;20052;-47
2023/02/22 08:38:16;;;;;;;2.92;0.90;;;;;;;4.50;87.48;100665.13;5028758;28;20045;-47
2023/02/22 08:40:43;;;;;;;2.67;0.65;;;;;;;4.52;87.52;100651.16;5028363;28;20394;-48
2023/02/22 08:43:10;;;;;;;1.33;0.90;;;;;;;4.48;87.52;100663.81;5028331;28;20103;-48
2023/02/22 08:45:37;;;;;;;5.85;0.90;;;;;;;4.50;87.77;100653.38;5027983;28;20045;-48
2023/02/22 08:48:04;;;;;;;5.47;1.77;;;;;;;4.49;87.31;100658.06;5028918;28;20077;-47
2023/02/22 08:50:35;;;;;;;5.40;2.60;;;;;;;4.56;87.50;100668.59;5028155;28;20386;-48
2023/02/22 08:53:04;;;;;;;5.53;0.80;;;;;;;4.56;87.42;100668.59;5028204;28;20045;-47
2023/02/22 08:55:34;;;;;;;6.30;0.70;;;;;;;4.59;87.11;100662.50;5028620;28;20049;-52
2023/02/22 08:58:01;;;;;;;4.90;1.70;;;;;;;4.58;87.11;100669.13;5010987;28;20045;-48
2023/02/22 09:00:31;;;;;;;1.45;0.95;;;;;;;4.56;87.11;100674.88;5027719;28;20112;-48
2023/02/22 09:03:02;;;;;;;2.78;0.70;;;;;;;4.54;87.16;100666.16;5028501;28;20132;-48
2023/02/22 09:05:29;;;;;;;3.38;0.75;;;;;;;4.56;86.87;100671.34;5028699;28;20556;-50
2023/02/22 09:07:58;;;;;;;1.20;0.70;;;;;;;4.53;86.92;100675.50;5028499;28;20045;-47
2023/02/22 09:10:28;;;;;;;9.18;3.03;;;;;;;4.49;86.83;100679.16;5030258;28;20505;-49
2023/02/22 09:12:55;;;;;;;3.60;1.88;;;;;;;4.56;87.06;100668.59;5023901;28;20141;-48
2023/02/22 09:15:24;;;;;;;4.15;0.73;;;;;;;4.61;86.87;100676.69;5028516;28;20150;-48
2023/02/22 09:17:52;;;;;;;3.70;1.10;;;;;;;4.63;86.59;100674.50;5017792;28;20069;-49
2023/02/22 09:20:20;;;;;;;6.13;0.82;;;;;;;4.63;86.34;100682.72;5025832;28;20069;-47
2023/02/22 09:22:47;;;;;;;6.28;1.10;;;;;;;4.65;86.54;100684.03;5028211;28;20049;-48
2023/02/22 09:25:17;;;;;;;3.45;0.85;;;;;;;4.69;86.31;100692.44;5028361;28;20053;-47
2023/02/22 09:27:47;;;;;;;3.45;0.90;;;;;;;4.72;86.38;100689.91;5030721;28;20124;-47
2023/02/22 09:30:30;;;;;;;7.65;0.82;;;;;;;4.74;86.30;100689.56;5031723;28;20065;-47
2023/02/22 09:33:09;;;;;;;5.75;0.85;;;;;;;4.73;85.83;100696.19;5032061;28;20053;-49
2023/02/22 09:35:40;;;;;;;6.18;1.20;;;;;;;4.70;85.75;100694.88;5021569;28;20049;-48
2023/02/22 09:38:10;;;;;;;8.40;1.35;;;;;;;4.74;85.74;100697.81;5032267;28;20050;-48
2023/02/22 09:40:44;;;;;;;5.30;1.00;;;;;;;4.81;85.93;100710.00;5031989;28;20378;-54
2023/02/22 09:43:35;;;;;;;5.50;1.45;;;;;;;4.88;85.89;100712.31;5031545;28;20049;-48
2023/02/22 09:46:34;;;;;;;7.80;1.08;;;;;;;4.92;85.64;100718.81;5031609;28;20503;-48
2023/02/22 09:49:20;;;;;;;11.48;1.55;;;;;;;4.94;85.24;100724.81;5031889;28;20152;-47
2023/02/22 09:52:01;;;;;;;3.65;1.00;;;;;;;4.97;85.27;100718.72;5019312;28;20052;-47
2023/02/22 09:54:39;;;;;;;16.35;2.33;;;;;;;5.00;85.16;100718.09;5031559;28;20495;-47
2023/02/22 09:57:12;;;;;;;2.92;1.05;;;;;;;5.06;85.32;100721.50;5014178;28;20132;-48
2023/02/22 10:00:18;;;;;;;7.50;0.93;;;;;;;5.12;84.92;100721.09;5031669;28;20483;-47
2023/02/22 10:03:13;;;;;;;7.18;1.15;;;;;;;5.14;84.99;100724.34;5031228;28;20154;-47
2023/02/22 10:05:45;;;;;;;4.13;0.60;;;;;;;5.20;84.69;100728.59;5031308;28;20160;-50
2023/02/22 10:08:17;;;;;;;4.13;0.65;;;;;;;5.23;84.63;100733.47;5030881;28;20049;-47
2023/02/22 10:10:51;;;;;;;4.53;1.63;;;;;;;5.24;84.51;100737.81;5029578;28;20526;-45
2023/02/22 10:13:33;;;;;;;8.80;1.23;;;;;;;5.28;84.36;100736.09;5031455;28;20054;-47
2023/02/22 10:16:04;;;;;;;2.05;1.10;;;;;;;5.36;84.12;100743.59;5030913;28;20049;-45
2023/02/22 10:19:02;;;;;;;3.70;0.82;;;;;;;5.43;83.98;100743.97;5026597;28;20053;-47
2023/02/22 10:22:06;;;;;;;5.63;1.00;;;;;;;5.61;83.73;100746.84;5031918;28;20041;-45
2023/02/22 10:24:45;;;;;;;4.43;0.85;;;;;;;5.67;83.44;100754.63;5013746;28;20143;-46
2023/02/22 10:27:21;;;;;;;4.68;1.70;;;;;;;5.67;82.94;100740.09;5030810;28;20393;-50
2023/02/22 10:29:56;;;;;;;5.68;1.20;;;;;;;5.70;83.04;100743.03;5015698;28;20057;-45
2023/02/22 10:32:30;;;;;;;2.45;1.05;;;;;;;5.71;82.57;100743.84;5031286;28;20085;-45
2023/02/22 10:34:58;;;;;;;3.65;1.15;;;;;;;5.79;83.01;100757.66;5040036;28;20121;-45
2023/02/22 10:37:27;;;;;;;6.38;1.20;;;;;;;5.90;82.91;100769.22;5021550;28;20046;-47
2023/02/22 10:40:16;;;;;;;5.97;1.33;;;;;;;5.98;82.53;100765.72;5030861;28;20052;-45
2023/02/22 10:42:43;;;;;;;4.22;1.30;;;;;;;6.02;82.31;100766.69;5030076;28;20457;-46
2023/02/22 10:45:34;;;;;;;9.00;1.58;;;;;;;6.08;82.01;100762.69;5029010;28;20059;-45
2023/02/22 10:48:07;;;;;;;4.18;2.00;;;;;;;6.05;82.01;100764.16;5030793;28;20502;-45
2023/02/22 10:50:39;;;;;;;7.78;1.20;;;;;;;6.09;81.96;100767.06;5030615;28;20052;-47
2023/02/22 10:53:07;;;;;;;12.57;3.30;;;;;;;6.11;81.81;100776.63;5029444;28;20044;-46
2023/02/22 10:55:35;;;;;;;11.82;2.90;;;;;;;6.17;81.91;100777.28;5030790;28;20045;-47
2023/02/22 10:58:05;;;;;;;7.00;1.65;;;;;;;6.22;81.73;100777.19;5030467;28;20044;-49
2023/02/22 11:00:38;;;;;;;7.10;1.35;;;;;;;6.31;81.63;100780.78;5029810;28;20073;-45
2023/02/22 11:03:25;;;;;;;;;;;;;;;6.33;81.19;100778.50;5030955;28;20411;-45
2023/02/22 11:05:52;;;;;;;6.38;1.17;;;;;;;6.42;81.60;100775.81;5029228;28;19931;-46
2023/02/22 11:08:31;;;;;;;7.68;1.48;;;;;;;6.52;81.55;100781.03;5030928;28;20514;-46
2023/02/22 11:11:19;;;;;;;5.78;1.92;;;;;;;6.60;81.10;100789.31;5034725;28;20057;-47
2023/02/22 11:13:54;;;;;;;4.28;1.30;;;;;;;6.71;81.22;100789.84;5027583;28;20103;-46
2023/02/22 11:16:30;;;;;;;6.22;2.13;;;;;;;6.85;81.29;100773.22;5011475;28;20069;-49
2023/02/22 11:19:01;;;;;;;6.70;2.08;;;;;;;6.94;81.13;100783.09;5030121;28;20474;-47
2023/02/22 11:21:31;;;;;;;8.07;2.08;;;;;;;7.04;81.00;100782.00;5030059;28;20045;-46
2023/02/22 11:24:07;;;;;;;7.03;1.77;;;;;;;7.08;80.70;100783.81;5012287;28;20164;-47
2023/02/22 11:26:43;;;;;;;4.57;1.08;;;;;;;7.20;80.69;100788.69;5029694;28;20549;-47
2023/02/22 11:29:21;;;;;;;6.05;0.95;;;;;;;7.32;80.62;100792.44;5030078;28;20372;-47
2023/02/22 11:31:48;;;;;;;6.57;1.83;;;;;;;7.48;80.45;100792.75;5030024;28;20136;-50
2023/02/22 11:34:32;;;;;;;9.52;2.40;;;;;;;7.54;80.01;100791.47;5021796;28;20443;-46
2023/02/22 11:37:24;;;;;;;4.13;0.93;;;;;;;7.56;79.61;100794.72;4996092;28;20053;-46
2023/02/22 11:40:11;;;;;;;6.18;1.35;;;;;;;7.64;79.36;100799.41;5027518;28;20037;-45
2023/02/22 11:42:37;;;;;;;8.88;1.65;;;;;;;7.70;79.21;100800.88;5029774;28;20049;-46
2023/02/22 11:45:13;;;;;;;10.07;1.92;;;;;;;7.71;78.86;100796.97;5029847;28;20056;-50
2023/02/22 11:47:54;;;;;;;7.68;1.50;;;;;;;7.70;78.62;100803.63;5029635;28;20350;-48
2023/02/22 11:50:50;;;;;;;12.82;2.95;;;;;;;7.71;78.39;100813.50;5027701;28;20081;-46
2023/02/22 11:53:45;;;;;;;7.75;1.55;;;;;;;7.70;78.22;100816.59;5017429;28;20053;-47
2023/02/22 11:56:35;;;;;;;3.05;1.40;;;;;;;7.69;78.32;100813.03;5029401;28;20048;-45
2023/02/22 11:59:31;;;;;;;3.20;1.60;;;;;;;7.71;78.17;100819.00;5029277;28;20403;-47